createdAt,value
2023-01-04T00:01:26.593Z,3.36
2023-01-04T00:03:54.344Z,3.43
2023-01-04T00:06:22.443Z,3.54
2023-01-04T00:08:50.266Z,3.38
2023-01-04T00:11:19.855Z,3.52
2023-01-04T00:13:48.568Z,3.42
2023-01-04T00:16:20.012Z,3.34
2023-01-04T00:18:48.057Z,3.46
2023-01-04T00:21:17.571Z,3.38
2023-01-04T00:23:47.286Z,3.34
2023-01-04T00:26:16.378Z,3.38
2023-01-04T00:28:50.075Z,3.24
2023-01-04T00:31:23.863Z,3.36
2023-01-04T00:33:51.989Z,3.28
2023-01-04T00:36:19.623Z,3.42
2023-01-04T00:38:47.254Z,3.30
2023-01-04T00:41:34.714Z,3.38
2023-01-04T00:44:04.402Z,3.39
2023-01-04T00:46:33.877Z,3.26
2023-01-04T00:49:01.979Z,3.31
2023-01-04T00:51:30.710Z,3.32
2023-01-04T00:53:58.837Z,3.31
2023-01-04T00:56:26.432Z,3.21
2023-01-04T00:58:55.823Z,3.27
2023-01-04T01:01:24.512Z,3.23
2023-01-04T01:03:55.853Z,3.07
2023-01-04T01:06:24.853Z,3.03
2023-01-04T01:08:53.080Z,3.15
2023-01-04T01:11:22.002Z,3.02
2023-01-04T01:13:50.059Z,2.93
2023-01-04T01:16:37.986Z,2.92
2023-01-04T01:19:09.888Z,2.75
2023-01-04T01:21:37.962Z,2.86
2023-01-04T01:24:06.607Z,2.71
2023-01-04T01:26:34.390Z,2.75
2023-01-04T01:29:02.111Z,2.71
2023-01-04T01:31:30.448Z,2.59
2023-01-04T01:33:58.525Z,2.48
2023-01-04T01:36:27.690Z,2.42
2023-01-04T01:38:55.774Z,2.34
2023-01-04T01:41:25.447Z,2.48
2023-01-04T01:43:56.483Z,2.36
2023-01-04T01:46:28.112Z,2.40
2023-01-04T01:49:00.758Z,2.38
2023-01-04T01:51:31.689Z,2.41
2023-01-04T01:54:05.434Z,2.50
2023-01-04T01:56:36.899Z,2.41
2023-01-04T01:59:05.147Z,2.25
2023-01-04T02:01:34.193Z,2.29
2023-01-04T02:04:03.883Z,2.28
2023-01-04T02:06:36.840Z,2.27
2023-01-04T02:09:04.770Z,2.33
2023-01-04T02:11:32.606Z,2.07
2023-01-04T02:14:21.865Z,2.18
2023-01-04T02:17:03.804Z,2.20
2023-01-04T02:19:53.972Z,1.98
2023-01-04T02:23:15.383Z,2.12
2023-01-04T02:26:17.789Z,2.24
2023-01-04T02:29:21.140Z,2.22
2023-01-04T02:31:55.220Z,2.36
2023-01-04T02:34:33.548Z,2.26
2023-01-04T02:37:09.411Z,2.17
2023-01-04T02:39:47.117Z,2.28
2023-01-04T02:42:21.239Z,2.31
2023-01-04T02:44:53.207Z,2.26
2023-01-04T02:47:40.909Z,2.43
2023-01-04T02:50:33.245Z,2.39
2023-01-04T02:53:07.415Z,2.46
2023-01-04T02:55:47.918Z,2.52
2023-01-04T02:58:33.981Z,2.49
2023-01-04T03:01:28.675Z,2.61
2023-01-04T03:04:30.002Z,2.62
2023-01-04T03:07:04.290Z,2.68
2023-01-04T03:09:36.534Z,2.78
2023-01-04T03:12:26.552Z,2.90
2023-01-04T03:15:00.369Z,2.86
2023-01-04T03:17:33.289Z,2.95
2023-01-04T03:20:03.433Z,2.95
2023-01-04T03:22:55.188Z,3.06
2023-01-04T03:25:46.640Z,3.03
2023-01-04T03:28:35.059Z,2.89
2023-01-04T03:31:27.412Z,2.99
2023-01-04T03:34:12.816Z,3.06
2023-01-04T03:36:59.384Z,3.03
2023-01-04T03:39:53.680Z,3.16
2023-01-04T03:42:46.490Z,3.10
2023-01-04T03:45:35.779Z,3.19
2023-01-04T03:48:30.282Z,3.19
2023-01-04T03:51:05.630Z,3.24
2023-01-04T03:53:41.003Z,3.14
2023-01-04T03:56:11.991Z,3.26
2023-01-04T03:58:40.229Z,3.33
2023-01-04T04:01:08.617Z,3.32
2023-01-04T04:03:53.999Z,3.18
2023-01-04T04:06:39.020Z,3.26
2023-01-04T04:09:08.099Z,3.45
2023-01-04T04:11:35.831Z,3.47
2023-01-04T04:14:03.459Z,3.22
2023-01-04T04:16:31.208Z,3.26
2023-01-04T04:19:01.939Z,3.33
2023-01-04T04:21:34.556Z,3.12
2023-01-04T04:24:02.260Z,3.22
2023-01-04T04:26:31.268Z,3.23
2023-01-04T04:28:59.070Z,3.18
2023-01-04T04:31:26.749Z,3.27
2023-01-04T04:33:54.445Z,3.32
2023-01-04T04:36:22.151Z,3.25
2023-01-04T04:38:49.815Z,3.37
2023-01-04T04:41:34.954Z,3.38
2023-01-04T04:44:03.969Z,3.47
2023-01-04T04:46:31.621Z,3.34
2023-01-04T04:48:59.410Z,3.31
2023-01-04T04:51:27.087Z,3.36
2023-01-04T04:53:54.877Z,3.30
2023-01-04T04:56:22.873Z,3.23
2023-01-04T04:58:51.150Z,3.36
2023-01-04T05:01:20.829Z,3.41
2023-01-04T05:03:48.835Z,3.41
2023-01-04T05:06:16.671Z,3.48
2023-01-04T05:08:44.346Z,3.45
2023-01-04T05:11:13.403Z,3.37
2023-01-04T05:13:40.615Z,3.57
2023-01-04T05:16:10.667Z,3.58
2023-01-04T05:18:39.821Z,3.58
2023-01-04T05:21:07.507Z,3.49
2023-01-04T05:23:35.150Z,3.50
2023-01-04T05:26:03.854Z,3.62
2023-01-04T05:28:31.552Z,3.72
2023-01-04T05:30:58.285Z,3.67
2023-01-04T05:33:27.929Z,3.64
2023-01-04T05:36:01.851Z,3.77
2023-01-04T05:38:30.007Z,3.83
2023-01-04T05:40:58.091Z,3.93
2023-01-04T05:43:25.190Z,3.87
2023-01-04T05:45:54.870Z,3.91
2023-01-04T05:48:24.792Z,3.85
2023-01-04T05:50:53.724Z,3.86
2023-01-04T05:53:22.849Z,3.84
2023-01-04T05:55:50.523Z,3.85
2023-01-04T05:58:18.255Z,3.73
2023-01-04T06:00:45.904Z,3.67
2023-01-04T06:03:13.605Z,3.61
2023-01-04T06:05:41.895Z,3.69
2023-01-04T06:08:09.533Z,3.82
2023-01-04T06:10:38.613Z,3.81
2023-01-04T06:13:06.376Z,3.73
2023-01-04T06:15:37.991Z,3.73
2023-01-04T06:18:13.620Z,3.77
2023-01-04T06:20:43.059Z,3.83
2023-01-04T06:23:10.724Z,3.82
2023-01-04T06:25:39.910Z,3.93
2023-01-04T06:28:07.835Z,3.88
2023-01-04T06:30:36.551Z,3.83
2023-01-04T06:33:04.232Z,3.85
2023-01-04T06:35:31.927Z,3.83
2023-01-04T06:37:59.544Z,3.82
2023-01-04T06:40:27.272Z,3.96
2023-01-04T06:42:56.533Z,3.94
2023-01-04T06:45:24.209Z,3.92
2023-01-04T06:47:51.825Z,3.96
2023-01-04T06:50:19.681Z,4.05
2023-01-04T06:52:47.362Z,4.01
2023-01-04T06:55:14.966Z,3.95
2023-01-04T06:57:42.678Z,3.92
2023-01-04T07:00:13.995Z,3.98
2023-01-04T07:03:14.144Z,4.04
2023-01-04T07:05:29.683Z,4.07
2023-01-04T07:08:05.729Z,4.05
2023-01-04T07:10:35.792Z,4.15
2023-01-04T07:13:03.761Z,4.11
2023-01-04T07:15:38.617Z,4.05
2023-01-04T07:18:07.577Z,3.88
2023-01-04T07:20:35.234Z,4.04
2023-01-04T07:23:02.910Z,4.01
2023-01-04T07:25:30.536Z,4.17
2023-01-04T07:27:58.262Z,4.14
2023-01-04T07:30:25.956Z,4.10
2023-01-04T07:32:55.814Z,4.13
2023-01-04T07:35:24.258Z,4.19
2023-01-04T07:37:57.933Z,4.26
2023-01-04T07:40:26.947Z,4.25
2023-01-04T07:43:00.652Z,4.41
2023-01-04T07:45:28.577Z,4.33
2023-01-04T07:47:58.777Z,4.49
2023-01-04T07:50:26.424Z,4.41
2023-01-04T07:52:54.355Z,4.52
2023-01-04T07:55:22.063Z,4.45
2023-01-04T07:57:49.731Z,4.56
2023-01-04T08:00:17.958Z,4.62
2023-01-04T08:02:45.751Z,4.66
2023-01-04T08:05:14.997Z,4.75
2023-01-04T08:07:42.881Z,4.69
2023-01-04T08:10:10.844Z,4.76
2023-01-04T08:12:38.507Z,4.80
2023-01-04T08:15:07.218Z,4.87
2023-01-04T08:17:35.218Z,5.01
2023-01-04T08:20:02.919Z,4.98
2023-01-04T08:22:31.925Z,4.99
2023-01-04T08:24:59.666Z,5.05
2023-01-04T08:27:27.384Z,5.07
2023-01-04T08:29:55.070Z,4.87
2023-01-04T08:32:22.772Z,5.00
2023-01-04T08:34:50.438Z,5.15
2023-01-04T08:37:18.207Z,5.17
2023-01-04T08:39:49.589Z,5.05
2023-01-04T08:42:26.645Z,5.18
2023-01-04T08:45:00.870Z,5.24
2023-01-04T08:47:29.149Z,5.12
2023-01-04T08:49:57.293Z,5.12
2023-01-04T08:52:25.008Z,5.18
2023-01-04T08:54:54.406Z,5.23
2023-01-04T08:57:22.059Z,5.37
2023-01-04T08:59:49.704Z,5.27
2023-01-04T09:02:23.555Z,5.47
2023-01-04T09:04:52.039Z,5.51
2023-01-04T09:07:20.092Z,5.54
2023-01-04T09:09:47.762Z,5.48
2023-01-04T09:12:16.787Z,5.61
2023-01-04T09:14:44.680Z,5.65
2023-01-04T09:17:12.320Z,5.82
2023-01-04T09:19:39.981Z,5.75
2023-01-04T09:22:07.768Z,5.95
2023-01-04T09:24:35.489Z,6.02
2023-01-04T09:27:04.679Z,6.02
2023-01-04T09:29:33.739Z,6.20
2023-01-04T09:32:01.451Z,6.28
2023-01-04T09:34:29.342Z,6.29
2023-01-04T09:36:57.058Z,6.39
2023-01-04T09:39:26.239Z,6.46
2023-01-04T09:41:58.130Z,6.58
2023-01-04T09:47:39.897Z,6.67
2023-01-04T09:50:14.569Z,6.82
2023-01-04T09:52:52.490Z,6.92
2023-01-04T09:55:37.359Z,6.90
2023-01-04T09:58:17.669Z,7.11
2023-01-04T10:00:50.931Z,7.13
2023-01-04T10:03:23.685Z,7.30
2023-01-04T10:05:53.651Z,7.31
2023-01-04T10:08:21.538Z,7.45
2023-01-04T10:10:57.973Z,7.44
2023-01-04T10:13:53.186Z,7.59
2023-01-04T10:21:13.430Z,7.71
2023-01-04T10:22:42.459Z,7.77
2023-01-04T10:25:25.108Z,7.70
2023-01-04T10:28:06.998Z,7.64
2023-01-04T10:30:43.328Z,7.66
2023-01-04T10:33:24.516Z,7.61
2023-01-04T10:35:53.119Z,7.59
2023-01-04T10:38:25.721Z,7.65
2023-01-04T10:40:56.171Z,7.61
2023-01-04T10:44:11.579Z,7.55
2023-01-04T10:46:30.829Z,7.62
2023-01-04T10:49:07.741Z,7.76
2023-01-04T10:51:40.685Z,7.76
2023-01-04T10:54:17.457Z,7.73
2023-01-04T10:56:51.357Z,7.81
2023-01-04T10:59:24.363Z,7.86
2023-01-04T11:01:57.578Z,7.87
2023-01-04T11:04:36.325Z,7.93
2023-01-04T11:07:11.479Z,7.91
2023-01-04T11:09:43.547Z,7.94
2023-01-04T11:12:14.596Z,8.05
2023-01-04T11:14:42.765Z,8.09
2023-01-04T11:17:12.799Z,8.13
2023-01-04T11:19:43.377Z,8.15
2023-01-04T11:22:17.975Z,8.13
2023-01-04T11:25:24.580Z,8.15
2023-01-04T11:27:45.907Z,8.16
2023-01-04T11:30:19.860Z,8.20
2023-01-04T11:32:53.933Z,8.26
2023-01-04T11:35:50.929Z,8.33
2023-01-04T11:38:20.237Z,8.27
2023-01-04T11:40:59.647Z,8.35
2023-01-04T11:43:28.679Z,8.38
2023-01-04T11:45:59.422Z,8.38
2023-01-04T11:48:36.889Z,8.46
2023-01-04T11:51:10.126Z,8.57
2023-01-04T11:53:41.613Z,8.55
2023-01-04T11:56:22.429Z,8.59
2023-01-04T11:59:11.846Z,8.68
2023-01-04T12:01:41.635Z,8.72
2023-01-04T12:04:17.835Z,8.79
2023-01-04T12:06:52.001Z,8.77
2023-01-04T12:09:21.393Z,8.81
2023-01-04T12:11:51.217Z,8.86
2023-01-04T12:14:25.624Z,8.83
2023-01-04T12:16:58.862Z,8.81
2023-01-04T12:19:28.037Z,8.89
2023-01-04T12:21:59.581Z,8.85
2023-01-04T12:24:29.640Z,8.94
2023-01-04T12:26:58.314Z,8.95
2023-01-04T12:29:56.783Z,9.02
2023-01-04T12:32:51.573Z,9.04
2023-01-04T12:36:01.925Z,9.08
2023-01-04T12:39:21.007Z,9.15
2023-01-04T12:42:22.188Z,9.23
2023-01-04T12:45:23.700Z,9.30
2023-01-04T12:48:10.655Z,9.36
2023-01-04T12:51:37.204Z,9.42
2023-01-04T12:54:24.100Z,9.56
2023-01-04T12:57:25.619Z,9.51
2023-01-04T12:59:57.912Z,9.48
2023-01-04T13:02:27.708Z,9.45
2023-01-04T13:05:25.825Z,9.44
2023-01-04T13:07:50.212Z,9.50
2023-01-04T13:10:29.882Z,9.45
2023-01-04T13:13:13.477Z,9.51
2023-01-04T13:15:53.694Z,9.52
2023-01-04T13:18:35.373Z,9.48
2023-01-04T13:21:05.521Z,9.43
2023-01-04T13:23:33.353Z,9.46
2023-01-04T13:26:29.026Z,9.53
2023-01-04T13:29:18.342Z,9.52
2023-01-04T13:31:52.786Z,9.59
2023-01-04T13:34:23.898Z,9.57
2023-01-04T13:36:58.925Z,9.55
2023-01-04T13:39:27.263Z,9.53
2023-01-04T13:41:56.048Z,9.51
2023-01-04T13:45:17.797Z,9.50
2023-01-04T13:47:37.446Z,9.53
2023-01-04T13:50:06.741Z,9.52
2023-01-04T13:53:05.504Z,9.52
2023-01-04T13:55:28.057Z,9.54
2023-01-04T13:57:59.333Z,9.49
2023-01-04T14:00:34.653Z,9.54
2023-01-04T14:03:22.395Z,9.62
2023-01-04T14:05:54.212Z,9.54
2023-01-04T14:08:31.194Z,9.59
2023-01-04T14:10:58.936Z,9.59
2023-01-04T14:13:26.909Z,9.61
2023-01-04T14:16:14.010Z,9.60
2023-01-04T14:18:41.919Z,9.58
2023-01-04T14:21:17.230Z,9.60
2023-01-04T14:23:44.963Z,9.63
2023-01-04T14:26:30.718Z,9.63
2023-01-04T14:28:58.386Z,9.63
2023-01-04T14:31:37.372Z,9.65
2023-01-04T14:34:14.425Z,9.67
2023-01-04T14:36:44.103Z,9.65
2023-01-04T14:39:19.496Z,9.66
2023-01-04T14:41:59.577Z,9.68
2023-01-04T14:44:30.735Z,9.68
2023-01-04T14:47:01.461Z,9.66
2023-01-04T14:49:30.064Z,9.63
2023-01-04T14:51:59.743Z,9.63
2023-01-04T14:54:29.428Z,9.70
2023-01-04T14:56:58.684Z,9.69
2023-01-04T14:59:28.584Z,9.68
2023-01-04T15:01:57.861Z,9.65
2023-01-04T15:04:27.023Z,9.69
2023-01-04T15:06:57.178Z,9.66
2023-01-04T15:09:25.469Z,9.66
2023-01-04T15:11:53.181Z,9.68
2023-01-04T15:14:20.928Z,9.62
2023-01-04T15:16:48.965Z,9.59
2023-01-04T15:19:17.115Z,9.54
2023-01-04T15:21:46.381Z,9.50
2023-01-04T15:24:14.046Z,9.37
2023-01-04T15:26:41.657Z,9.29
2023-01-04T15:29:09.844Z,9.21
2023-01-04T15:31:40.320Z,8.93
2023-01-04T15:34:08.783Z,8.74
2023-01-04T15:36:38.615Z,8.67
2023-01-04T15:39:08.529Z,8.56
2023-01-04T15:41:53.780Z,8.62
2023-01-04T15:44:21.467Z,8.69
2023-01-04T15:46:51.135Z,8.70
2023-01-04T15:49:18.932Z,8.66
2023-01-04T15:51:47.034Z,8.63
2023-01-04T15:54:17.171Z,8.68
2023-01-04T15:56:44.929Z,8.69
2023-01-04T15:59:13.697Z,8.72
2023-01-04T16:01:41.906Z,8.69
2023-01-04T16:04:11.575Z,8.77
2023-01-04T16:06:40.213Z,8.74
2023-01-04T16:09:08.303Z,8.77
2023-01-04T16:11:57.396Z,8.76
2023-01-04T16:14:25.025Z,8.77
2023-01-04T16:16:52.824Z,8.77
2023-01-04T16:19:20.519Z,8.69
2023-01-04T16:21:48.188Z,8.70
2023-01-04T16:24:44.902Z,8.80
2023-01-04T16:27:06.194Z,8.82
2023-01-04T16:29:33.862Z,8.85
2023-01-04T16:32:01.633Z,8.87
2023-01-04T16:34:29.344Z,8.81
2023-01-04T16:36:56.981Z,8.74
2023-01-04T16:39:57.253Z,8.77
2023-01-04T16:42:13.605Z,8.86
2023-01-04T16:44:41.574Z,8.80
2023-01-04T16:47:09.317Z,8.80
2023-01-04T16:49:37.048Z,8.78
2023-01-04T16:52:06.673Z,8.80
2023-01-04T16:54:34.431Z,8.76
2023-01-04T16:57:02.069Z,8.79
2023-01-04T16:59:31.423Z,8.79
2023-01-04T17:01:59.308Z,8.77
2023-01-04T17:04:27.115Z,8.77
2023-01-04T17:06:58.109Z,8.73
2023-01-04T17:09:25.827Z,8.70
2023-01-04T17:15:15.168Z,8.62
2023-01-04T17:17:40.172Z,8.69
2023-01-04T17:20:09.014Z,8.70
2023-01-04T17:22:36.840Z,8.69
2023-01-04T17:25:05.704Z,8.69
2023-01-04T17:27:33.383Z,8.73
2023-01-04T17:30:02.420Z,8.67
2023-01-04T17:32:30.184Z,8.71
2023-01-04T17:34:58.714Z,8.68
2023-01-04T17:37:26.944Z,8.64
2023-01-04T17:39:54.821Z,8.71
2023-01-04T17:42:23.079Z,8.71
2023-01-04T17:44:51.331Z,8.69
2023-01-04T17:47:20.535Z,8.66
2023-01-04T17:49:48.217Z,8.66
2023-01-04T17:52:22.201Z,8.58
2023-01-04T17:54:52.195Z,8.56
2023-01-04T17:57:19.999Z,8.73
2023-01-04T17:59:47.643Z,8.79
2023-01-04T18:02:15.423Z,8.75
2023-01-04T18:04:44.503Z,8.83
2023-01-04T18:09:44.766Z,8.72
2023-01-04T18:12:12.545Z,8.68
2023-01-04T18:14:40.197Z,8.72
2023-01-04T18:17:08.065Z,8.78
2023-01-04T18:19:36.260Z,8.66
2023-01-04T18:22:06.457Z,8.65
2023-01-04T18:24:37.718Z,8.54
2023-01-04T18:27:23.651Z,8.43
2023-01-04T18:29:52.950Z,8.46
2023-01-04T18:32:20.912Z,8.35
2023-01-04T18:34:48.635Z,8.37
2023-01-04T18:37:18.573Z,8.31
2023-01-04T18:39:47.009Z,8.31
2023-01-04T18:42:14.884Z,8.36
2023-01-04T18:44:48.003Z,8.35
2023-01-04T18:47:16.875Z,8.35
2023-01-04T18:49:44.637Z,8.46
2023-01-04T18:52:12.496Z,8.51
2023-01-04T18:54:41.625Z,8.48
2023-01-04T18:57:09.464Z,8.44
2023-01-04T18:59:37.146Z,8.50
2023-01-04T19:02:04.923Z,8.57
2023-01-04T19:04:34.728Z,8.57
2023-01-04T19:07:03.181Z,8.56
2023-01-04T19:09:31.480Z,8.65
2023-01-04T19:12:00.693Z,8.70
2023-01-04T19:14:28.403Z,8.87
2023-01-04T19:16:56.113Z,8.91
2023-01-04T19:19:24.055Z,8.96
2023-01-04T19:21:51.836Z,8.95
2023-01-04T19:24:19.517Z,8.96
2023-01-04T19:26:47.238Z,9.05
2023-01-04T19:29:16.294Z,9.07
2023-01-04T19:31:43.969Z,9.19
2023-01-04T19:34:12.974Z,9.26
2023-01-04T19:36:41.087Z,9.31
2023-01-04T19:39:09.258Z,9.41
2023-01-04T19:41:38.315Z,9.43
2023-01-04T19:44:08.037Z,9.42
2023-01-04T19:46:38.112Z,9.47
2023-01-04T19:49:10.725Z,9.53
2023-01-04T19:51:43.718Z,9.56
2023-01-04T19:54:18.498Z,9.60
2023-01-04T19:56:51.138Z,9.65
2023-01-04T19:59:18.950Z,9.64
2023-01-04T20:01:48.127Z,9.63
2023-01-04T20:04:16.068Z,9.68
2023-01-04T20:06:43.829Z,9.69
2023-01-04T20:09:11.886Z,9.68
2023-01-04T20:11:39.562Z,9.74
2023-01-04T20:14:07.409Z,9.75
2023-01-04T20:16:35.137Z,9.76
2023-01-04T20:19:04.308Z,9.77
2023-01-04T20:21:32.088Z,9.76
2023-01-04T20:24:01.140Z,9.78
2023-01-04T20:26:29.996Z,9.78
2023-01-04T20:28:57.693Z,9.75
2023-01-04T20:31:25.493Z,9.77
2023-01-04T20:33:53.217Z,9.80
2023-01-04T20:36:26.196Z,9.75
2023-01-04T20:38:54.952Z,9.76
2023-01-04T20:41:24.651Z,9.76
2023-01-04T20:43:52.270Z,9.73
2023-01-04T20:46:22.130Z,9.71
2023-01-04T20:48:50.075Z,9.72
2023-01-04T20:51:19.529Z,9.75
2023-01-04T20:53:48.645Z,9.73
2023-01-04T20:56:18.465Z,9.74
2023-01-04T20:58:47.261Z,9.73
2023-01-04T21:01:16.142Z,9.72
2023-01-04T21:03:44.571Z,9.71
2023-01-04T21:06:14.982Z,9.75
2023-01-04T21:08:43.758Z,9.73
2023-01-04T21:11:14.313Z,9.69
2023-01-04T21:13:42.395Z,9.80
2023-01-04T21:16:10.266Z,9.77
2023-01-04T21:18:38.583Z,9.81
2023-01-04T21:21:07.060Z,9.84
2023-01-04T21:23:35.025Z,9.84
2023-01-04T21:26:07.157Z,9.86
2023-01-04T21:28:37.116Z,9.85
2023-01-04T21:31:10.600Z,9.80
2023-01-04T21:33:38.511Z,9.71
2023-01-04T21:36:13.885Z,9.52
2023-01-04T21:38:41.644Z,9.32
2023-01-04T21:41:10.866Z,9.18
2023-01-04T21:43:40.088Z,9.11
2023-01-04T21:46:09.754Z,9.05
2023-01-04T21:48:38.392Z,9.05
2023-01-04T21:51:07.380Z,9.05
2023-01-04T21:53:36.634Z,9.06
2023-01-04T21:56:07.651Z,9.12
2023-01-04T21:58:35.760Z,9.12
2023-01-04T22:01:09.802Z,9.16
2023-01-04T22:03:37.586Z,9.25
2023-01-04T22:06:06.135Z,9.31
2023-01-04T22:08:33.936Z,9.40
2023-01-04T22:11:02.322Z,9.43
2023-01-04T22:13:30.210Z,9.57
2023-01-04T22:15:58.149Z,9.64
2023-01-04T22:18:27.358Z,9.70
2023-01-04T22:21:02.506Z,9.77
2023-01-04T22:23:30.987Z,9.88
2023-01-04T22:25:59.406Z,9.92
2023-01-04T22:28:31.669Z,9.97
2023-01-04T22:31:05.866Z,9.96
2023-01-04T22:33:35.717Z,10.01
2023-01-04T22:36:07.294Z,10.03
2023-01-04T22:38:36.318Z,10.08
2023-01-04T22:41:07.669Z,10.10
2023-01-04T22:43:36.433Z,10.10
2023-01-04T22:46:06.720Z,10.13
2023-01-04T22:48:36.562Z,10.17
2023-01-04T22:51:07.648Z,10.15
2023-01-04T22:53:35.940Z,10.18
2023-01-04T22:56:23.537Z,10.17
2023-01-04T22:58:54.912Z,10.15
2023-01-04T23:01:24.895Z,10.11
2023-01-04T23:03:55.131Z,10.15
2023-01-04T23:06:24.783Z,10.19
2023-01-04T23:08:56.965Z,10.19
2023-01-04T23:11:25.273Z,10.25
2023-01-04T23:13:55.541Z,10.27
2023-01-04T23:16:29.602Z,10.24
2023-01-04T23:19:01.521Z,10.26
2023-01-04T23:21:29.772Z,10.31
2023-01-04T23:23:57.687Z,10.35
2023-01-04T23:26:27.674Z,10.31
2023-01-04T23:28:55.726Z,10.31
2023-01-04T23:31:26.031Z,10.29
2023-01-04T23:33:56.373Z,10.31
2023-01-04T23:36:28.575Z,10.29
2023-01-04T23:38:57.976Z,10.38
2023-01-04T23:41:44.521Z,10.33
2023-01-04T23:44:17.740Z,10.38
2023-01-04T23:46:46.243Z,10.39
2023-01-04T23:49:14.749Z,10.42
2023-01-04T23:51:43.881Z,10.41
2023-01-04T23:54:11.626Z,10.38
2023-01-04T23:56:39.983Z,10.37
2023-01-04T23:59:08.632Z,10.36
